createdAt,value
2023-09-03T00:00:48.098Z,7.20
2023-09-03T00:03:15.524Z,7.70
2023-09-03T00:05:50.578Z,7.07
2023-09-03T00:08:18.288Z,6.95
2023-09-03T00:10:49.502Z,6.90
2023-09-03T00:13:16.653Z,7.00
2023-09-03T00:15:43.795Z,6.75
2023-09-03T00:18:15.728Z,6.50
2023-09-03T00:20:55.666Z,6.55
2023-09-03T00:23:22.765Z,6.70
2023-09-03T00:25:49.951Z,6.63
2023-09-03T00:28:17.068Z,7.05
2023-09-03T00:30:44.227Z,145.13
2023-09-03T00:33:11.355Z,15.43
2023-09-03T00:35:40.332Z,9.77
2023-09-03T00:38:07.368Z,7.90
2023-09-03T00:40:40.496Z,8.40
2023-09-03T00:43:07.517Z,7.60
2023-09-03T00:45:34.886Z,8.10
2023-09-03T00:48:02.426Z,8.75
2023-09-03T00:50:31.095Z,8.32
2023-09-03T00:52:58.240Z,8.18
2023-09-03T00:55:25.328Z,8.57
2023-09-03T00:57:52.502Z,8.40
2023-09-03T01:00:19.807Z,8.63
2023-09-03T01:02:48.305Z,8.32
2023-09-03T01:05:15.865Z,8.27
2023-09-03T01:07:42.945Z,8.25
2023-09-03T01:10:10.232Z,8.00
2023-09-03T01:12:48.012Z,7.88
2023-09-03T01:15:22.780Z,8.40
2023-09-03T01:17:59.892Z,8.02
2023-09-03T01:21:07.336Z,7.50
2023-09-03T01:23:43.707Z,8.02
2023-09-03T01:26:47.829Z,8.98
2023-09-03T01:29:17.540Z,9.63
2023-09-03T01:31:45.711Z,8.55
2023-09-03T01:34:14.073Z,9.00
2023-09-03T01:36:41.755Z,11.15
2023-09-03T01:39:08.923Z,9.13
2023-09-03T01:41:38.033Z,9.27
2023-09-03T01:44:06.539Z,9.15
2023-09-03T01:46:48.096Z,8.98
2023-09-03T01:49:25.274Z,8.52
2023-09-03T01:52:14.328Z,9.02
2023-09-03T01:54:48.582Z,8.40
2023-09-03T01:57:28.871Z,8.15
2023-09-03T01:59:59.160Z,8.80
2023-09-03T02:04:55.988Z,8.45
2023-09-03T02:07:23.077Z,8.05
2023-09-03T02:09:50.124Z,8.45
2023-09-03T02:12:24.783Z,8.80
2023-09-03T02:14:53.768Z,9.23
2023-09-03T02:17:21.563Z,8.32
2023-09-03T02:19:53.239Z,8.82
2023-09-03T02:22:40.161Z,9.10
2023-09-03T02:25:08.220Z,8.93
2023-09-03T02:27:35.254Z,9.00
2023-09-03T02:30:02.244Z,8.70
2023-09-03T02:32:33.537Z,9.50
2023-09-03T02:35:00.886Z,8.95
2023-09-03T02:37:31.777Z,8.73
2023-09-03T02:39:58.836Z,8.98
2023-09-03T02:42:26.699Z,8.82
2023-09-03T02:44:54.218Z,8.60
2023-09-03T02:47:21.233Z,9.25
2023-09-03T02:49:48.217Z,8.60
2023-09-03T02:52:16.135Z,8.10
2023-09-03T02:54:43.179Z,8.88
2023-09-03T02:57:10.182Z,9.18
2023-09-03T02:59:37.257Z,9.80
2023-09-03T03:02:04.444Z,9.68
2023-09-03T03:04:31.540Z,9.75
2023-09-03T03:06:58.600Z,10.05
2023-09-03T03:09:25.631Z,9.57
2023-09-03T03:11:52.671Z,9.63
2023-09-03T03:14:19.956Z,9.98
2023-09-03T03:16:48.142Z,10.05
2023-09-03T03:19:17.104Z,10.35
2023-09-03T03:21:44.166Z,10.23
2023-09-03T03:24:11.459Z,9.80
2023-09-03T03:26:40.968Z,9.82
2023-09-03T03:29:13.582Z,9.75
2023-09-03T03:31:45.601Z,10.30
2023-09-03T03:34:13.678Z,9.73
2023-09-03T03:36:42.629Z,10.07
2023-09-03T03:39:09.631Z,10.02
2023-09-03T03:41:37.996Z,10.25
2023-09-03T03:44:07.667Z,9.70
2023-09-03T03:46:34.775Z,10.07
2023-09-03T03:49:01.700Z,10.65
2023-09-03T03:51:28.840Z,9.35
2023-09-03T03:53:57.191Z,9.38
2023-09-03T03:56:24.283Z,9.68
2023-09-03T03:58:51.607Z,10.20
2023-09-03T04:01:20.652Z,9.65
2023-09-03T04:03:50.318Z,9.65
2023-09-03T04:06:18.075Z,10.35
2023-09-03T04:08:45.394Z,11.23
2023-09-03T04:11:14.860Z,10.55
2023-09-03T04:13:42.649Z,10.93
2023-09-03T04:16:11.643Z,9.30
2023-09-03T04:18:39.385Z,10.98
2023-09-03T04:21:06.746Z,9.43
2023-09-03T04:23:34.796Z,10.32
2023-09-03T04:26:04.719Z,9.25
2023-09-03T04:28:33.988Z,12.20
2023-09-03T04:31:05.505Z,10.38
2023-09-03T04:33:36.419Z,9.57
2023-09-03T04:36:05.852Z,9.32
2023-09-03T04:38:35.480Z,9.77
2023-09-03T04:41:06.855Z,9.73
2023-09-03T04:44:10.843Z,9.10
2023-09-03T04:46:41.608Z,9.68
2023-09-03T04:49:09.014Z,9.30
2023-09-03T04:51:36.356Z,8.60
2023-09-03T05:00:34.418Z,10.27
2023-09-03T05:03:06.560Z,9.23
2023-09-03T05:15:04.153Z,8.15
2023-09-03T05:18:03.609Z,9.60
2023-09-03T05:20:31.357Z,8.30
2023-09-03T05:26:23.779Z,8.10
2023-09-03T05:32:15.631Z,7.90
2023-09-03T05:34:42.719Z,8.05
2023-09-03T05:37:10.034Z,6.63
2023-09-03T05:39:37.672Z,6.75
2023-09-03T05:42:04.992Z,7.07
2023-09-03T05:44:32.142Z,6.90
2023-09-03T05:46:59.465Z,7.68
2023-09-03T05:49:27.159Z,7.97
2023-09-03T05:51:54.216Z,7.35
2023-09-03T05:54:21.302Z,7.75
2023-09-03T05:56:48.478Z,8.23
2023-09-03T05:59:15.622Z,8.43
2023-09-03T06:01:42.764Z,20.25
2023-09-03T06:04:15.316Z,7.88
2023-09-03T06:06:44.263Z,7.60
2023-09-03T06:09:11.365Z,7.28
2023-09-03T06:11:38.801Z,6.07
2023-09-03T06:14:05.906Z,8.10
2023-09-03T06:16:32.977Z,6.35
2023-09-03T06:19:00.218Z,6.88
2023-09-03T06:21:28.324Z,6.00
2023-09-03T06:23:55.375Z,6.50
2023-09-03T06:26:22.546Z,6.25
2023-09-03T06:28:49.517Z,6.55
2023-09-03T06:31:16.656Z,6.55
2023-09-03T06:33:45.158Z,6.43
2023-09-03T06:36:13.238Z,6.07
2023-09-03T06:38:43.843Z,6.13
2023-09-03T06:41:11.399Z,6.10
2023-09-03T06:43:38.575Z,11.93
2023-09-03T06:46:05.610Z,7.28
2023-09-03T06:48:32.548Z,6.13
2023-09-03T06:50:59.658Z,6.43
2023-09-03T06:53:27.084Z,5.88
2023-09-03T06:55:54.119Z,6.20
2023-09-03T06:58:22.042Z,6.13
2023-09-03T07:00:51.104Z,6.07
2023-09-03T07:03:19.446Z,5.00
2023-09-03T07:05:47.167Z,4.97
2023-09-03T07:08:14.832Z,4.45
2023-09-03T07:10:41.821Z,4.50
2023-09-03T07:13:10.228Z,3.90
2023-09-03T07:15:37.852Z,4.50
2023-09-03T07:18:05.917Z,3.50
2023-09-03T07:20:33.073Z,3.63
2023-09-03T07:23:00.148Z,3.30
2023-09-03T07:25:27.172Z,3.20
2023-09-03T07:27:54.252Z,3.90
2023-09-03T07:30:21.261Z,3.28
2023-09-03T07:32:48.257Z,3.38
2023-09-03T07:35:15.756Z,3.47
2023-09-03T07:37:44.345Z,3.90
2023-09-03T07:40:12.295Z,3.30
2023-09-03T07:42:39.442Z,4.03
2023-09-03T07:45:07.188Z,3.30
2023-09-03T07:47:34.352Z,3.45
2023-09-03T07:50:02.587Z,3.35
2023-09-03T07:52:30.539Z,3.37
2023-09-03T07:54:57.653Z,3.40
2023-09-03T07:57:25.214Z,3.50
2023-09-03T07:59:53.596Z,3.08
2023-09-03T08:02:20.706Z,4.60
2023-09-03T08:04:49.185Z,4.45
2023-09-03T08:07:16.353Z,4.13
2023-09-03T08:09:43.964Z,3.83
2023-09-03T08:12:11.019Z,3.65
2023-09-03T08:14:39.217Z,4.22
2023-09-03T08:17:06.271Z,3.38
2023-09-03T08:19:33.338Z,4.05
2023-09-03T08:22:00.435Z,3.72
2023-09-03T08:24:28.482Z,4.18
2023-09-03T08:26:55.500Z,4.03
2023-09-03T08:29:22.537Z,3.95
2023-09-03T08:31:49.601Z,4.47
2023-09-03T08:34:16.767Z,3.80
2023-09-03T08:36:43.770Z,3.90
2023-09-03T08:39:10.880Z,3.60
2023-09-03T08:41:40.087Z,4.05
2023-09-03T08:44:27.269Z,4.18
2023-09-03T08:47:00.689Z,4.18
2023-09-03T08:49:32.260Z,4.18
2023-09-03T08:51:59.894Z,3.90
2023-09-03T08:54:28.284Z,3.75
2023-09-03T08:56:56.727Z,3.63
2023-09-03T08:59:23.818Z,3.80
2023-09-03T09:01:54.679Z,3.95
2023-09-03T09:04:22.973Z,4.15
2023-09-03T09:06:50.801Z,3.90
2023-09-03T09:09:18.325Z,3.72
2023-09-03T09:11:56.517Z,4.10
2023-09-03T09:14:32.611Z,3.70
2023-09-03T09:16:59.617Z,3.13
2023-09-03T09:19:26.615Z,3.03
2023-09-03T09:21:54.141Z,3.08
2023-09-03T09:24:21.111Z,3.50
2023-09-03T09:26:48.205Z,3.72
2023-09-03T09:29:15.283Z,5.70
2023-09-03T09:31:42.227Z,4.05
2023-09-03T09:34:14.391Z,2.97
2023-09-03T09:36:57.281Z,3.30
2023-09-03T09:39:26.351Z,4.10
2023-09-03T09:42:09.128Z,3.67
2023-09-03T09:44:36.223Z,4.03
2023-09-03T09:47:19.307Z,3.20
2023-09-03T09:49:49.578Z,2.60
2023-09-03T09:52:17.202Z,2.65
2023-09-03T09:54:46.244Z,2.72
2023-09-03T09:57:15.647Z,2.85
2023-09-03T09:59:44.122Z,2.78
2023-09-03T10:02:15.784Z,2.78
2023-09-03T10:04:53.710Z,2.20
2023-09-03T10:07:21.384Z,2.50
2023-09-03T10:09:48.488Z,2.28
2023-09-03T10:12:15.528Z,3.10
2023-09-03T10:14:42.876Z,2.70
2023-09-03T10:17:14.291Z,3.97
2023-09-03T10:19:48.470Z,2.90
2023-09-03T10:22:20.472Z,2.90
2023-09-03T10:24:53.681Z,2.88
2023-09-03T10:27:25.962Z,3.38
2023-09-03T10:29:56.488Z,3.03
2023-09-03T10:32:24.513Z,3.10
2023-09-03T10:34:51.727Z,3.47
2023-09-03T10:37:19.968Z,3.10
2023-09-03T10:39:47.443Z,3.20
2023-09-03T10:42:17.754Z,2.80
2023-09-03T10:44:51.662Z,2.90
2023-09-03T10:47:19.494Z,2.92
2023-09-03T10:49:48.675Z,2.95
2023-09-03T10:52:28.495Z,2.97
2023-09-03T10:55:14.634Z,2.90
2023-09-03T10:57:43.810Z,2.75
2023-09-03T11:00:14.530Z,2.65
2023-09-03T11:02:48.558Z,2.78
2023-09-03T11:05:23.718Z,2.90
2023-09-03T11:08:30.712Z,2.70
2023-09-03T11:10:58.987Z,2.67
2023-09-03T11:13:37.713Z,2.83
2023-09-03T11:16:06.236Z,3.30
2023-09-03T11:18:34.322Z,3.10
2023-09-03T11:21:02.817Z,3.50
2023-09-03T11:23:33.918Z,5.13
2023-09-03T11:26:04.822Z,3.60
2023-09-03T11:28:37.346Z,2.65
2023-09-03T11:31:05.176Z,2.70
2023-09-03T11:33:32.588Z,3.00
2023-09-03T11:36:01.431Z,3.35
2023-09-03T11:38:31.753Z,2.83
2023-09-03T11:41:00.315Z,2.80
2023-09-03T11:43:30.341Z,3.13
2023-09-03T11:48:33.846Z,2.70
2023-09-03T11:51:13.097Z,2.83
2023-09-03T11:53:43.735Z,2.90
2023-09-03T11:56:16.335Z,2.67
2023-09-03T11:58:44.984Z,45.97
2023-09-03T12:01:14.208Z,3.17
2023-09-03T12:03:42.123Z,3.10
2023-09-03T12:06:09.428Z,2.70
2023-09-03T12:08:36.859Z,2.60
2023-09-03T12:11:03.978Z,2.80
2023-09-03T12:13:33.080Z,2.80
2023-09-03T12:16:07.898Z,3.20
2023-09-03T12:18:36.539Z,2.95
2023-09-03T12:21:07.151Z,12.95
2023-09-03T12:23:36.135Z,4.85
2023-09-03T12:26:03.877Z,3.60
2023-09-03T12:28:40.192Z,3.30
2023-09-03T12:31:08.184Z,3.53
2023-09-03T12:33:36.160Z,3.28
2023-09-03T12:36:16.799Z,2.85
2023-09-03T12:38:59.407Z,2.72
2023-09-03T12:41:29.932Z,2.78
2023-09-03T12:43:57.466Z,2.95
2023-09-03T12:46:24.849Z,3.40
2023-09-03T12:48:52.115Z,4.20
2023-09-03T12:51:19.516Z,9.80
2023-09-03T12:53:48.973Z,3.40
2023-09-03T12:56:16.462Z,3.40
2023-09-03T12:58:43.521Z,3.00
2023-09-03T13:01:13.678Z,3.22
2023-09-03T13:03:40.971Z,4.20
2023-09-03T13:06:09.702Z,3.03
2023-09-03T13:08:38.415Z,3.55
2023-09-03T13:11:05.607Z,3.15
2023-09-03T13:13:32.917Z,15.55
2023-09-03T13:16:01.572Z,3.85
2023-09-03T13:18:28.814Z,3.30
2023-09-03T13:20:56.066Z,3.33
2023-09-03T13:23:24.002Z,3.10
2023-09-03T13:25:51.249Z,3.50
2023-09-03T13:28:18.345Z,3.25
2023-09-03T13:30:57.244Z,2.85
2023-09-03T13:33:33.372Z,2.88
2023-09-03T13:36:01.280Z,2.80
2023-09-03T13:38:28.442Z,3.53
2023-09-03T13:40:55.680Z,2.90
2023-09-03T13:43:24.951Z,3.20
2023-09-03T13:45:56.351Z,3.13
2023-09-03T13:48:26.451Z,2.55
2023-09-03T13:50:55.722Z,2.88
2023-09-03T13:53:23.367Z,4.28
2023-09-03T13:55:50.664Z,3.40
2023-09-03T13:58:18.788Z,4.13
2023-09-03T14:00:46.368Z,4.32
2023-09-03T14:03:13.595Z,4.07
2023-09-03T14:05:40.810Z,4.10
2023-09-03T14:08:08.041Z,4.15
2023-09-03T14:10:35.297Z,6.30
2023-09-03T14:13:02.411Z,5.38
2023-09-03T14:15:33.041Z,4.20
2023-09-03T14:18:00.185Z,4.10
2023-09-03T14:20:27.302Z,4.72
2023-09-03T14:22:54.611Z,4.55
2023-09-03T14:25:23.257Z,4.30
2023-09-03T14:27:50.752Z,4.00
2023-09-03T14:30:17.977Z,5.55
2023-09-03T14:32:45.030Z,4.47
2023-09-03T14:35:12.161Z,4.45
2023-09-03T14:37:39.236Z,4.53
2023-09-03T14:40:07.322Z,3.97
2023-09-03T14:42:34.360Z,4.60
2023-09-03T14:45:01.381Z,4.63
2023-09-03T14:49:58.172Z,5.20
2023-09-03T14:52:26.498Z,7.90
2023-09-03T14:54:53.587Z,7.25
2023-09-03T14:57:20.604Z,5.70
2023-09-03T14:59:47.708Z,6.03
2023-09-03T15:02:14.790Z,7.30
2023-09-03T15:04:41.848Z,6.07
2023-09-03T15:07:08.918Z,7.78
2023-09-03T15:09:35.934Z,10.40
2023-09-03T15:12:03.057Z,4.93
2023-09-03T15:14:30.047Z,5.50
2023-09-03T15:16:57.052Z,4.80
2023-09-03T15:19:24.283Z,4.13
2023-09-03T15:21:51.380Z,6.93
2023-09-03T15:24:18.419Z,8.07
2023-09-03T15:26:46.054Z,6.97
2023-09-03T15:29:13.189Z,6.22
2023-09-03T15:31:40.219Z,6.10
2023-09-03T15:34:10.050Z,5.78
2023-09-03T15:36:37.164Z,5.95
2023-09-03T15:39:04.573Z,5.10
2023-09-03T15:41:31.706Z,5.20
2023-09-03T15:44:02.375Z,5.45
2023-09-03T15:46:29.692Z,5.80
2023-09-03T15:48:56.942Z,5.10
2023-09-03T15:51:24.120Z,5.38
2023-09-03T15:53:51.147Z,5.70
2023-09-03T15:56:18.270Z,6.95
2023-09-03T15:58:45.314Z,6.38
2023-09-03T16:01:13.578Z,7.32
2023-09-03T16:03:40.677Z,8.13
2023-09-03T16:06:08.514Z,29.70
2023-09-03T16:08:35.636Z,22.80
2023-09-03T16:11:06.661Z,17.05
2023-09-03T16:13:36.202Z,13.90
2023-09-03T16:16:07.744Z,25.10
2023-09-03T16:18:35.147Z,19.50
2023-09-03T16:21:02.293Z,20.10
2023-09-03T16:23:31.655Z,16.42
2023-09-03T16:25:58.852Z,16.55
2023-09-03T16:28:26.122Z,15.30
2023-09-03T16:31:00.115Z,14.10
2023-09-03T16:33:27.801Z,14.73
2023-09-03T16:36:01.816Z,13.35
2023-09-03T16:38:29.412Z,13.75
2023-09-03T16:40:57.850Z,13.63
2023-09-03T16:43:26.047Z,12.57
2023-09-03T16:45:53.299Z,11.85
2023-09-03T16:48:20.515Z,10.98
2023-09-03T16:50:47.686Z,12.57
2023-09-03T16:53:14.713Z,11.05
2023-09-03T16:55:42.000Z,11.43
2023-09-03T16:58:09.238Z,13.18
2023-09-03T17:00:39.501Z,13.20
2023-09-03T17:03:06.856Z,10.98
2023-09-03T17:05:34.577Z,12.73
2023-09-03T17:08:01.693Z,13.38
2023-09-03T17:13:14.967Z,11.85
2023-09-03T17:15:42.806Z,11.32
2023-09-03T17:18:10.945Z,10.80
2023-09-03T17:20:42.414Z,9.57
2023-09-03T17:23:09.588Z,11.02
2023-09-03T17:25:36.861Z,10.70
2023-09-03T17:28:04.271Z,9.75
2023-09-03T17:30:32.073Z,10.52
2023-09-03T17:33:01.966Z,9.75
2023-09-03T17:35:28.988Z,9.00
2023-09-03T17:37:56.225Z,6.88
2023-09-03T17:40:23.306Z,6.68
2023-09-03T17:42:50.337Z,8.40
2023-09-03T17:45:17.654Z,7.88
2023-09-03T17:47:44.788Z,8.27
2023-09-03T17:50:14.305Z,8.15
2023-09-03T17:52:41.654Z,7.75
2023-09-03T17:55:08.949Z,8.02
2023-09-03T17:57:36.171Z,7.13
2023-09-03T18:00:04.102Z,8.77
2023-09-03T18:02:40.491Z,10.55
2023-09-03T18:05:17.461Z,8.13
2023-09-03T18:07:47.356Z,6.80
2023-09-03T18:12:48.672Z,6.18
2023-09-03T18:15:19.250Z,8.88
2023-09-03T18:17:47.465Z,6.97
2023-09-03T18:20:23.407Z,10.85
2023-09-03T18:22:51.343Z,8.98
2023-09-03T18:25:27.670Z,13.38
2023-09-03T18:27:57.213Z,9.77
2023-09-03T18:30:25.139Z,6.60
2023-09-03T18:32:52.965Z,5.57
2023-09-03T18:35:20.380Z,9.77
2023-09-03T18:37:48.356Z,6.85
2023-09-03T18:40:15.636Z,6.38
2023-09-03T18:42:45.900Z,5.30
2023-09-03T18:47:40.923Z,14.13
2023-09-03T18:50:09.229Z,10.05
2023-09-03T18:52:36.880Z,8.27
2023-09-03T18:55:04.685Z,7.30
2023-09-03T18:57:37.651Z,8.23
2023-09-03T19:00:08.768Z,8.07
2023-09-03T19:02:37.432Z,8.48
2023-09-03T19:05:05.312Z,9.30
2023-09-03T19:07:32.926Z,8.10
2023-09-03T19:10:02.626Z,7.85
2023-09-03T19:15:05.207Z,6.50
2023-09-03T19:17:33.238Z,7.18
2023-09-03T19:20:03.570Z,8.52
2023-09-03T19:22:31.128Z,7.03
2023-09-03T19:25:02.481Z,7.40
2023-09-03T19:27:32.963Z,7.03
2023-09-03T19:30:03.570Z,7.60
2023-09-03T19:32:33.033Z,7.35
2023-09-03T19:35:00.355Z,6.90
2023-09-03T19:37:27.432Z,6.88
2023-09-03T19:39:54.700Z,8.00
2023-09-03T19:42:24.099Z,8.90
2023-09-03T19:44:51.291Z,7.57
2023-09-03T19:47:18.596Z,7.60
2023-09-03T19:49:45.627Z,7.57
2023-09-03T19:52:17.851Z,15.63
2023-09-03T19:54:45.076Z,6.65
2023-09-03T19:57:12.138Z,5.90
2023-09-03T19:59:39.587Z,7.97
2023-09-03T20:02:07.005Z,5.97
2023-09-03T20:04:37.119Z,5.90
2023-09-03T20:07:05.074Z,6.43
2023-09-03T20:09:32.107Z,7.10
2023-09-03T20:11:59.119Z,6.68
2023-09-03T20:14:26.168Z,5.85
2023-09-03T20:16:53.207Z,5.60
2023-09-03T20:19:20.341Z,6.03
2023-09-03T20:21:49.003Z,6.05
2023-09-03T20:24:16.682Z,13.45
2023-09-03T20:26:43.684Z,9.70
2023-09-03T20:29:13.375Z,6.70
2023-09-03T20:31:45.232Z,5.95
2023-09-03T20:34:12.827Z,6.32
2023-09-03T20:36:40.468Z,6.18
2023-09-03T20:39:08.122Z,6.40
2023-09-03T20:41:38.434Z,6.97
2023-09-03T20:44:06.167Z,6.35
2023-09-03T20:46:34.283Z,6.38
2023-09-03T20:49:04.769Z,6.60
2023-09-03T20:51:34.972Z,6.78
2023-09-03T20:54:01.972Z,7.03
2023-09-03T20:56:47.610Z,7.20
2023-09-03T20:59:14.709Z,7.35
2023-09-03T21:01:41.670Z,7.47
2023-09-03T21:04:08.787Z,7.22
2023-09-03T21:06:35.717Z,7.20
2023-09-03T21:09:04.259Z,7.20
2023-09-03T21:11:34.257Z,9.52
2023-09-03T21:14:01.265Z,9.85
2023-09-03T21:16:28.388Z,10.10
2023-09-03T21:18:55.969Z,10.30
2023-09-03T21:21:23.104Z,8.77
2023-09-03T21:23:50.968Z,9.43
2023-09-03T21:26:18.654Z,8.80
2023-09-03T21:28:46.136Z,7.80
2023-09-03T21:31:20.270Z,8.48
2023-09-03T21:33:49.042Z,8.70
2023-09-03T21:36:20.600Z,9.52
2023-09-03T21:38:48.904Z,11.48
2023-09-03T21:41:16.149Z,13.80
2023-09-03T21:43:50.113Z,13.55
2023-09-03T21:46:17.167Z,12.90
2023-09-03T21:48:44.265Z,10.45
2023-09-03T21:51:19.381Z,11.75
2023-09-03T21:53:47.286Z,14.68
2023-09-03T21:56:14.385Z,11.10
2023-09-03T21:58:41.621Z,9.82
2023-09-03T22:01:09.125Z,13.50
2023-09-03T22:03:36.181Z,9.77
2023-09-03T22:06:05.722Z,33.17
2023-09-03T22:08:33.924Z,31.92
2023-09-03T22:11:01.422Z,52.10
2023-09-03T22:13:30.580Z,103.32
2023-09-03T22:15:57.961Z,49.20
2023-09-03T22:18:25.847Z,46.03
2023-09-03T22:20:53.603Z,47.40
2023-09-03T22:23:20.602Z,51.67
2023-09-03T22:25:48.195Z,47.05
2023-09-03T22:28:15.175Z,18.52
2023-09-03T22:30:42.319Z,25.73
2023-09-03T22:33:09.321Z,19.63
2023-09-03T22:35:36.485Z,25.50
2023-09-03T22:38:03.837Z,22.98
2023-09-03T22:40:31.053Z,26.67
2023-09-03T22:42:58.040Z,31.83
2023-09-03T22:45:25.114Z,37.50
2023-09-03T22:47:52.171Z,41.63
2023-09-03T22:50:19.349Z,37.63
2023-09-03T22:52:46.410Z,50.78
2023-09-03T22:55:13.343Z,67.55
2023-09-03T22:57:40.343Z,77.88
2023-09-03T23:00:08.752Z,83.97
2023-09-03T23:02:35.866Z,89.97
2023-09-03T23:05:03.050Z,77.63
2023-09-03T23:07:31.721Z,90.72
2023-09-03T23:09:58.858Z,99.43
2023-09-03T23:12:25.982Z,94.78
2023-09-03T23:14:52.887Z,94.47
2023-09-03T23:17:19.928Z,99.32
2023-09-03T23:19:46.844Z,95.90
2023-09-03T23:22:13.828Z,45.10
2023-09-03T23:24:40.859Z,70.93
2023-09-03T23:27:07.884Z,69.55
2023-09-03T23:29:34.909Z,62.08
2023-09-03T23:32:01.899Z,42.25
2023-09-03T23:34:29.202Z,39.42
2023-09-03T23:36:56.146Z,31.05
2023-09-03T23:39:23.790Z,38.00
2023-09-03T23:41:50.830Z,51.88
2023-09-03T23:44:17.798Z,39.53
2023-09-03T23:46:46.534Z,63.30
2023-09-03T23:49:14.988Z,51.28
2023-09-03T23:51:42.005Z,44.38
2023-09-03T23:54:09.340Z,46.42
2023-09-03T23:56:36.310Z,40.92
2023-09-03T23:59:03.432Z,55.22
